Time;durP1;ratioP1;P1;durP2;ratioP2;P2;SDS_P1;SDS_P2;PMS_P1;PMS_P2;Temp;Humidity;BMP_temperature;BMP_pressure;BME280_temperature;BME280_humidity;BME280_pressure;Samples;Min_cycle;Max_cycle;Signal;HPM_P1;HPM_P2
2020/12/24 00:00:31;;;;;;;2.30;2.05;;;11.20;99.90;;;;;;5031635;28;20500;-76
2020/12/24 00:02:57;;;;;;;1.95;1.77;;;11.10;99.90;;;;;;5031931;28;20029;-75
2020/12/24 00:05:23;;;;;;;1.83;1.67;;;11.10;99.90;;;;;;5031488;28;20354;-75
2020/12/24 00:07:49;;;;;;;2.65;1.92;;;11.10;99.90;;;;;;5031356;28;20060;-75
2020/12/24 00:10:16;;;;;;;3.83;1.95;;;11.00;99.90;;;;;;5013823;28;20057;-75
2020/12/24 00:12:42;;;;;;;4.43;2.65;;;11.10;99.90;;;;;;5030223;28;20070;-76
2020/12/24 00:15:09;;;;;;;2.50;1.75;;;11.10;99.90;;;;;;5031384;28;20021;-75
2020/12/24 00:17:36;;;;;;;3.75;1.55;;;11.10;99.90;;;;;;5031426;28;20113;-75
2020/12/24 00:20:03;;;;;;;2.78;1.95;;;11.30;99.90;;;;;;5030164;28;20051;-76
2020/12/24 00:22:29;;;;;;;2.47;1.85;;;11.30;99.90;;;;;;5031242;28;20362;-76
2020/12/24 00:24:55;;;;;;;2.10;1.60;;;11.40;99.90;;;;;;5029935;28;20033;-75
2020/12/24 00:27:20;;;;;;;2.10;1.52;;;11.30;99.90;;;;;;5029858;28;20080;-76
2020/12/24 00:29:46;;;;;;;2.13;1.70;;;11.40;99.90;;;;;;5031154;28;20025;-76
2020/12/24 00:32:12;;;;;;;2.10;1.60;;;11.50;99.90;;;;;;5030295;28;20109;-75
2020/12/24 00:34:38;;;;;;;2.78;1.73;;;11.40;99.90;;;;;;5013429;28;20071;-76
2020/12/24 00:37:03;;;;;;;1.67;1.58;;;11.40;99.90;;;;;;5030104;28;20049;-75
2020/12/24 00:39:29;;;;;;;3.03;1.30;;;11.40;99.90;;;;;;5031413;28;20021;-76
2020/12/24 00:41:55;;;;;;;2.30;1.70;;;11.30;99.90;;;;;;5031737;28;20079;-76
2020/12/24 00:44:22;;;;;;;1.92;1.38;;;11.30;99.90;;;;;;5029824;28;20022;-76
2020/12/24 00:46:48;;;;;;;2.65;1.90;;;11.30;99.90;;;;;;5030171;28;20029;-75
2020/12/24 00:49:14;;;;;;;3.25;1.58;;;11.40;99.90;;;;;;5029898;28;20164;-75
2020/12/24 00:51:40;;;;;;;2.45;1.50;;;11.30;99.90;;;;;;5031259;28;20493;-75
2020/12/24 00:54:06;;;;;;;2.63;1.70;;;11.30;99.90;;;;;;5031089;28;20120;-75
2020/12/24 00:56:31;;;;;;;1.27;1.15;;;11.30;99.90;;;;;;5030138;28;20014;-75
2020/12/24 00:58:57;;;;;;;2.17;1.83;;;11.40;99.90;;;;;;5030055;28;20041;-76
2020/12/24 01:01:23;;;;;;;1.80;1.33;;;11.40;99.90;;;;;;5029842;28;20032;-75
2020/12/24 01:03:49;;;;;;;2.75;1.75;;;11.50;99.90;;;;;;5030895;28;20646;-75
2020/12/24 01:06:14;;;;;;;2.58;2.00;;;11.40;99.90;;;;;;5029604;28;20651;-75
2020/12/24 01:08:40;;;;;;;1.98;1.58;;;11.40;99.90;;;;;;5030580;28;20083;-75
2020/12/24 01:11:06;;;;;;;2.53;2.03;;;11.40;99.90;;;;;;5029613;28;20048;-75
2020/12/24 01:13:32;;;;;;;3.38;2.67;;;11.30;99.90;;;;;;5029282;28;20388;-75
2020/12/24 01:15:58;;;;;;;2.03;1.83;;;11.30;99.90;;;;;;5030778;28;20426;-75
2020/12/24 01:18:23;;;;;;;1.80;1.48;;;11.30;99.90;;;;;;5030806;28;20050;-75
2020/12/24 01:20:49;;;;;;;2.17;1.90;;;11.20;99.90;;;;;;5029283;28;20064;-75
2020/12/24 01:23:15;;;;;;;1.60;1.50;;;11.20;99.90;;;;;;5030753;28;20034;-75
2020/12/24 01:25:40;;;;;;;1.75;1.38;;;11.30;99.90;;;;;;5030404;28;20230;-76
2020/12/24 01:28:06;;;;;;;2.17;1.80;;;11.30;99.90;;;;;;5030576;28;20108;-75
2020/12/24 01:30:32;;;;;;;2.70;1.73;;;11.40;99.90;;;;;;5030500;28;20412;-75
2020/12/24 01:32:58;;;;;;;2.50;1.83;;;11.50;99.90;;;;;;5029284;28;20087;-75
2020/12/24 01:35:23;;;;;;;1.52;1.40;;;11.40;99.90;;;;;;5030264;28;20079;-76
2020/12/24 01:37:49;;;;;;;2.78;1.85;;;11.30;99.90;;;;;;5029181;28;20032;-76
2020/12/24 01:40:15;;;;;;;1.98;1.38;;;11.30;99.90;;;;;;5030243;28;20033;-76
2020/12/24 01:42:44;;;;;;;1.98;1.40;;;11.40;99.90;;;;;;5030437;28;20183;-76
2020/12/24 01:45:10;;;;;;;4.88;1.23;;;11.40;99.90;;;;;;5016187;28;20120;-76
2020/12/24 01:47:36;;;;;;;1.13;1.02;;;11.30;99.90;;;;;;5032899;28;20037;-76
2020/12/24 01:50:03;;;;;;;1.55;1.30;;;11.10;99.90;;;;;;5033870;28;20029;-76
2020/12/24 01:52:37;;;;;;;2.05;1.50;;;11.20;99.90;;;;;;5032760;28;20022;-76
2020/12/24 01:55:12;;;;;;;2.05;1.77;;;11.20;99.90;;;;;;5033928;28;20018;-75
2020/12/24 01:57:38;;;;;;;2.75;1.50;;;11.30;99.90;;;;;;5034259;28;20477;-76
2020/12/24 02:00:13;;;;;;;2.50;1.95;;;11.20;99.90;;;;;;5034010;28;20036;-75
2020/12/24 02:02:39;;;;;;;1.85;1.75;;;11.00;99.90;;;;;;5016012;28;20125;-75
2020/12/24 02:05:06;;;;;;;1.85;1.75;;;11.00;99.90;;;;;;5016018;28;20127;-75
2020/12/24 02:07:32;;;;;;;2.80;1.73;;;11.00;99.90;;;;;;5033358;28;20021;-75
2020/12/24 02:09:59;;;;;;;1.67;1.58;;;11.00;99.90;;;;;;5033708;28;20507;-76
2020/12/24 02:12:25;;;;;;;3.90;1.58;;;11.00;99.90;;;;;;5033467;28;20101;-75
2020/12/24 02:14:50;;;;;;;3.00;1.80;;;11.10;99.90;;;;;;5032269;28;20108;-75
2020/12/24 02:17:16;;;;;;;2.17;1.90;;;11.00;99.90;;;;;;5032077;28;20426;-75
2020/12/24 02:19:42;;;;;;;2.13;1.73;;;11.00;99.90;;;;;;5032216;28;20413;-76
2020/12/24 02:22:09;;;;;;;4.78;1.98;;;11.10;99.90;;;;;;5015735;28;20049;-75
2020/12/24 02:24:36;;;;;;;1.60;1.50;;;11.00;99.90;;;;;;5033345;28;20033;-76
2020/12/24 02:27:03;;;;;;;5.85;2.40;;;10.90;99.90;;;;;;5031942;28;20107;-76
2020/12/24 02:29:29;;;;;;;3.67;2.05;;;10.70;99.90;;;;;;5032145;28;20017;-76
2020/12/24 02:31:55;;;;;;;1.65;1.55;;;10.70;99.90;;;;;;5033515;28;20026;-75
2020/12/24 02:34:21;;;;;;;4.70;2.97;;;10.50;99.90;;;;;;5033381;28;20078;-75
2020/12/24 02:36:46;;;;;;;1.45;1.35;;;10.40;99.90;;;;;;5032105;28;20029;-76
2020/12/24 02:39:12;;;;;;;1.73;1.52;;;10.20;99.90;;;;;;5015172;28;20047;-75
2020/12/24 02:41:38;;;;;;;2.42;1.05;;;10.10;99.90;;;;;;5033322;28;20493;-75
2020/12/24 02:44:04;;;;;;;1.95;1.08;;;10.20;99.90;;;;;;5032882;28;20100;-75
2020/12/24 02:46:30;;;;;;;1.65;0.77;;;10.20;99.90;;;;;;5033471;28;20029;-75
2020/12/24 02:48:56;;;;;;;0.80;0.80;;;10.10;99.90;;;;;;5032226;28;20107;-75
2020/12/24 02:51:21;;;;;;;3.05;1.10;;;9.90;99.90;;;;;;5033636;28;20022;-75
2020/12/24 02:53:47;;;;;;;4.32;2.03;;;9.80;99.90;;;;;;5031743;28;20021;-75
2020/12/24 02:56:13;;;;;;;1.40;1.00;;;9.70;99.90;;;;;;5030962;28;20028;-75
2020/12/24 02:58:39;;;;;;;0.60;0.60;;;9.80;99.90;;;;;;5032872;28;20040;-75
2020/12/24 03:01:04;;;;;;;0.80;0.80;;;9.80;99.90;;;;;;5031952;28;20431;-76
2020/12/24 03:03:31;;;;;;;1.80;0.93;;;9.80;99.90;;;;;;5032827;28;20112;-76
2020/12/24 03:05:57;;;;;;;0.80;0.80;;;10.00;99.90;;;;;;5031616;28;20451;-76
2020/12/24 03:08:22;;;;;;;1.05;0.80;;;9.90;99.90;;;;;;5032492;28;20104;-75
2020/12/24 03:10:48;;;;;;;0.85;0.80;;;10.00;99.90;;;;;;5032715;28;20508;-75
2020/12/24 03:13:14;;;;;;;0.75;0.75;;;10.00;99.90;;;;;;5031468;28;20512;-75
2020/12/24 03:15:40;;;;;;;1.65;1.00;;;10.00;99.90;;;;;;5031063;28;20025;-76
2020/12/24 03:18:05;;;;;;;1.65;0.80;;;10.10;99.90;;;;;;5032681;28;20035;-75
2020/12/24 03:20:32;;;;;;;1.40;1.02;;;10.10;99.90;;;;;;5032616;28;20032;-75
2020/12/24 03:22:58;;;;;;;0.90;0.90;;;10.00;99.90;;;;;;5014770;28;20037;-75
2020/12/24 03:25:23;;;;;;;1.05;0.90;;;10.00;99.90;;;;;;5012926;23;20054;-75
2020/12/24 03:27:49;;;;;;;1.00;0.93;;;9.80;99.90;;;;;;4992949;28;20045;-74
2020/12/24 03:30:15;;;;;;;0.98;0.80;;;9.50;99.90;;;;;;4992670;28;20046;-75
2020/12/24 03:32:41;;;;;;;1.10;1.00;;;9.40;99.90;;;;;;4991756;28;20297;-75
2020/12/24 03:35:07;;;;;;;1.13;1.00;;;9.40;99.90;;;;;;4992569;28;20022;-74
2020/12/24 03:37:33;;;;;;;1.48;1.10;;;9.30;99.90;;;;;;4992784;28;20026;-74
2020/12/24 03:39:59;;;;;;;2.53;1.25;;;9.20;99.90;;;;;;4992557;28;20027;-75
2020/12/24 03:42:25;;;;;;;2.38;1.20;;;9.10;99.90;;;;;;4992738;28;20026;-75
2020/12/24 03:44:51;;;;;;;3.70;1.33;;;9.20;99.90;;;;;;4991169;28;20058;-74
2020/12/24 03:47:16;;;;;;;1.38;1.20;;;9.20;99.90;;;;;;4991445;28;20043;-75
2020/12/24 03:49:42;;;;;;;2.40;1.10;;;9.20;99.90;;;;;;4991375;28;20018;-75
2020/12/24 03:52:08;;;;;;;1.42;0.98;;;9.40;99.90;;;;;;4991176;28;20430;-75
2020/12/24 03:54:34;;;;;;;1.33;0.70;;;9.40;99.90;;;;;;4992650;28;20113;-75
2020/12/24 03:56:59;;;;;;;0.88;0.80;;;9.40;99.90;;;;;;4992495;28;20022;-75
2020/12/24 03:59:25;;;;;;;1.13;0.50;;;9.20;99.90;;;;;;4992460;28;20557;-75
2020/12/24 04:01:51;;;;;;;0.40;0.40;;;9.20;99.90;;;;;;4990995;28;20100;-75
2020/12/24 04:04:16;;;;;;;1.75;0.45;;;9.20;99.90;;;;;;4992365;28;20065;-74
2020/12/24 04:06:42;;;;;;;0.50;0.30;;;9.20;99.90;;;;;;4992205;28;20413;-75
2020/12/24 04:09:08;;;;;;;0.35;0.35;;;9.10;99.90;;;;;;4992326;28;20034;-75
2020/12/24 04:11:34;;;;;;;0.30;0.30;;;8.90;99.90;;;;;;4992251;28;20466;-74
2020/12/24 04:13:59;;;;;;;0.35;0.30;;;8.80;99.90;;;;;;4992793;28;20061;-75
2020/12/24 04:16:25;;;;;;;0.57;0.40;;;8.90;99.90;;;;;;4992230;28;20030;-74
2020/12/24 04:18:51;;;;;;;0.30;0.30;;;8.90;99.90;;;;;;4992746;28;20026;-74
2020/12/24 04:21:19;;;;;;;0.60;0.47;;;9.00;99.90;;;;;;4992883;28;20589;-75
2020/12/24 04:23:44;;;;;;;0.40;0.35;;;8.90;99.90;;;;;;4992861;28;20042;-75
2020/12/24 04:26:18;;;;;;;0.75;0.40;;;8.80;99.90;;;;;;4992975;28;20072;-75
2020/12/24 04:28:43;;;;;;;0.77;0.40;;;8.90;99.90;;;;;;4992927;28;20029;-74
2020/12/24 04:31:09;;;;;;;1.05;0.30;;;8.80;99.90;;;;;;4992295;28;20026;-77
2020/12/24 04:33:38;;;;;;;0.30;0.30;;;8.60;99.90;;;;;;4992595;28;20387;-75
2020/12/24 04:36:04;;;;;;;1.58;0.50;;;8.50;99.90;;;;;;4992046;28;20026;-75
2020/12/24 04:38:29;;;;;;;0.60;0.43;;;8.40;99.90;;;;;;4974187;28;20394;-75
2020/12/24 04:40:58;;;;;;;0.98;0.40;;;8.10;99.90;;;;;;4990627;28;20022;-75
2020/12/24 04:43:26;;;;;;;0.52;0.35;;;8.20;99.90;;;;;;4990200;28;20031;-75
2020/12/24 04:45:52;;;;;;;0.77;0.40;;;8.20;99.90;;;;;;4992027;28;20386;-75
2020/12/24 04:48:19;;;;;;;0.93;0.55;;;8.40;99.90;;;;;;4991587;28;20030;-75
2020/12/24 04:50:49;;;;;;;3.50;0.40;;;8.30;99.90;;;;;;4991789;28;20038;-75
2020/12/24 04:53:15;;;;;;;0.55;0.40;;;8.30;99.90;;;;;;4991909;28;20073;-75
2020/12/24 04:55:41;;;;;;;3.55;0.45;;;8.10;99.90;;;;;;4974315;28;20026;-75
2020/12/24 04:58:09;;;;;;;0.45;0.45;;;8.00;99.90;;;;;;4991493;28;20500;-75
2020/12/24 05:00:36;;;;;;;0.40;0.25;;;8.00;99.90;;;;;;4991682;28;20026;-75
2020/12/24 05:03:11;;;;;;;0.57;0.40;;;8.00;99.90;;;;;;4991785;28;20030;-75
2020/12/24 05:05:38;;;;;;;1.75;0.57;;;7.90;99.90;;;;;;4990496;28;20022;-75
2020/12/24 05:08:05;;;;;;;1.58;0.30;;;7.90;99.90;;;;;;4991546;28;20026;-75
2020/12/24 05:10:32;;;;;;;0.30;0.30;;;7.80;99.90;;;;;;4991991;28;20061;-75
2020/12/24 05:13:13;;;;;;;1.23;0.40;;;7.80;99.90;;;;;;4990404;28;20030;-75
2020/12/24 05:15:39;;;;;;;0.80;0.40;;;7.70;99.90;;;;;;4991593;28;20026;-75
2020/12/24 05:18:15;;;;;;;0.30;0.30;;;7.70;99.90;;;;;;4990904;28;20026;-75
2020/12/24 05:20:41;;;;;;;0.45;0.45;;;7.80;99.90;;;;;;4995271;28;20030;-75
2020/12/24 05:23:14;;;;;;;0.32;0.32;;;7.80;99.90;;;;;;4995488;28;20034;-75
2020/12/24 05:25:41;;;;;;;1.15;0.77;;;7.80;99.90;;;;;;4993806;28;20485;-75
2020/12/24 05:28:07;;;;;;;0.60;0.60;;;7.70;99.90;;;;;;4995171;28;20022;-75
2020/12/24 05:30:34;;;;;;;3.05;0.40;;;7.70;99.90;;;;;;4993752;28;20023;-75
2020/12/24 05:33:00;;;;;;;0.32;0.20;;;7.60;99.90;;;;;;4994005;28;20394;-75
2020/12/24 05:35:28;;;;;;;0.35;0.35;;;7.70;99.90;;;;;;4994865;28;20023;-75
2020/12/24 05:37:54;;;;;;;0.40;0.40;;;7.40;99.90;;;;;;4993790;28;20037;-75
2020/12/24 05:40:31;;;;;;;0.40;0.40;;;7.20;99.90;;;;;;4993621;28;20072;-74
2020/12/24 05:43:01;;;;;;;0.30;0.30;;;7.30;99.90;;;;;;4994011;28;20030;-75
2020/12/24 05:45:31;;;;;;;0.40;0.40;;;7.20;99.90;;;;;;4994963;28;20077;-75
2020/12/24 05:48:23;;;;;;;0.70;0.50;;;7.10;99.90;;;;;;4993903;28;20171;-75
2020/12/24 05:50:49;;;;;;;1.02;0.40;;;7.10;99.90;;;;;;4994579;28;20446;-75
2020/12/24 05:53:19;;;;;;;0.60;0.40;;;7.10;99.90;;;;;;4995200;28;20022;-75
2020/12/24 05:55:45;;;;;;;0.30;0.30;;;7.00;99.90;;;;;;4994719;28;20117;-75
2020/12/24 05:58:11;;;;;;;0.30;0.30;;;7.00;99.90;;;;;;4995162;28;20105;-75
2020/12/24 06:00:41;;;;;;;0.50;0.50;;;6.90;99.90;;;;;;4994888;28;20026;-75
2020/12/24 06:03:17;;;;;;;0.82;0.57;;;6.80;99.90;;;;;;4995093;28;20409;-75
2020/12/24 06:05:55;;;;;;;0.43;0.40;;;6.90;99.90;;;;;;4993138;28;20026;-75
2020/12/24 06:08:24;;;;;;;0.75;0.40;;;6.70;99.90;;;;;;4994721;28;20114;-75
2020/12/24 06:11:06;;;;;;;2.33;0.43;;;6.80;99.90;;;;;;4993214;28;20105;-75
2020/12/24 06:13:49;;;;;;;0.52;0.50;;;6.80;99.90;;;;;;4994629;28;20033;-75
2020/12/24 06:16:15;;;;;;;0.40;0.40;;;6.80;99.90;;;;;;4992882;28;20398;-75
2020/12/24 06:18:46;;;;;;;1.40;0.32;;;6.90;99.90;;;;;;4994433;28;20032;-74
2020/12/24 06:21:12;;;;;;;0.95;0.50;;;6.80;99.90;;;;;;4994208;28;20035;-75
2020/12/24 06:23:42;;;;;;;0.40;0.40;;;6.70;99.90;;;;;;4994261;28;20026;-74
2020/12/24 06:26:10;;;;;;;1.17;0.75;;;6.60;99.90;;;;;;4992805;28;20101;-75
2020/12/24 06:28:38;;;;;;;0.60;0.40;;;6.50;99.90;;;;;;4992902;28;20056;-75
2020/12/24 06:31:04;;;;;;;0.40;0.40;;;6.40;99.90;;;;;;4991723;28;20482;-74
2020/12/24 06:33:30;;;;;;;1.00;0.70;;;6.40;99.90;;;;;;4994188;28;20454;-74
2020/12/24 06:35:57;;;;;;;0.40;0.40;;;6.40;99.90;;;;;;4994158;28;20030;-75
2020/12/24 06:38:46;;;;;;;0.57;0.50;;;6.50;99.90;;;;;;4992545;28;20372;-75
2020/12/24 06:41:28;;;;;;;0.55;0.50;;;6.40;99.90;;;;;;4994037;28;20126;-75
2020/12/24 06:43:54;;;;;;;0.68;0.40;;;6.40;99.90;;;;;;4993813;28;20073;-75
2020/12/24 06:46:20;;;;;;;0.40;0.40;;;6.40;99.90;;;;;;4993842;28;20081;-75
2020/12/24 06:49:05;;;;;;;1.05;0.68;;;6.40;99.90;;;;;;4993464;28;20030;-75
2020/12/24 06:51:50;;;;;;;1.17;0.50;;;6.50;99.90;;;;;;4992489;28;20026;-74
2020/12/24 06:54:24;;;;;;;0.30;0.30;;;6.40;99.90;;;;;;4993376;28;20084;-75
2020/12/24 06:57:10;;;;;;;1.27;0.45;;;6.30;99.90;;;;;;4997703;28;20018;-75
2020/12/24 06:59:36;;;;;;;0.50;0.50;;;6.20;99.90;;;;;;4993434;28;20034;-75
2020/12/24 07:02:04;;;;;;;0.30;0.30;;;6.20;99.90;;;;;;4993475;28;20425;-75
2020/12/24 07:04:38;;;;;;;0.65;0.60;;;6.20;99.90;;;;;;4991886;28;20026;-75
2020/12/24 07:07:04;;;;;;;0.77;0.60;;;6.20;99.90;;;;;;4993646;28;20105;-75
2020/12/24 07:09:30;;;;;;;0.55;0.55;;;6.10;99.90;;;;;;4991898;28;20025;-74
2020/12/24 07:11:56;;;;;;;3.33;0.98;;;6.10;99.90;;;;;;4993367;28;20030;-75
2020/12/24 07:14:27;;;;;;;1.00;0.90;;;5.90;99.90;;;;;;4992865;28;20026;-75
2020/12/24 07:16:53;;;;;;;1.85;0.68;;;5.90;99.90;;;;;;4993198;28;20046;-75
2020/12/24 07:19:20;;;;;;;0.30;0.30;;;5.90;99.90;;;;;;4992891;28;20101;-75
2020/12/24 07:21:51;;;;;;;1.20;0.50;;;5.80;99.90;;;;;;4993190;28;20030;-75
2020/12/24 07:24:26;;;;;;;0.60;0.50;;;5.80;99.90;;;;;;4997997;28;20040;-74
2020/12/24 07:26:56;;;;;;;0.85;0.43;;;5.80;99.90;;;;;;4999462;28;20026;-75
2020/12/24 07:29:23;;;;;;;3.10;0.40;;;5.90;99.90;;;;;;4991594;28;20026;-75
2020/12/24 07:31:50;;;;;;;0.40;0.40;;;5.90;99.90;;;;;;4993250;28;20028;-75
2020/12/24 07:34:24;;;;;;;0.50;0.50;;;5.90;99.90;;;;;;4993215;28;20014;-75
2020/12/24 07:36:50;;;;;;;0.57;0.50;;;6.00;99.90;;;;;;4976078;28;20026;-75
2020/12/24 07:39:16;;;;;;;1.45;0.55;;;6.00;99.90;;;;;;4992958;28;20030;-75
2020/12/24 07:41:42;;;;;;;1.85;0.90;;;5.90;99.90;;;;;;4991511;28;20026;-76
2020/12/24 07:44:09;;;;;;;0.32;0.32;;;6.00;99.90;;;;;;4992938;28;20058;-75
2020/12/24 07:46:35;;;;;;;2.83;0.93;;;6.00;99.90;;;;;;4992484;28;20088;-74
2020/12/24 07:49:05;;;;;;;1.58;0.50;;;6.00;99.90;;;;;;4991159;28;20133;-75
2020/12/24 07:51:34;;;;;;;2.13;0.55;;;6.10;99.90;;;;;;5000034;28;20019;-75
2020/12/24 07:54:15;;;;;;;1.70;0.60;;;6.20;99.90;;;;;;4997639;28;20021;-75
2020/12/24 07:56:46;;;;;;;0.60;0.60;;;6.20;99.90;;;;;;5010494;28;20120;-75
2020/12/24 07:59:15;;;;;;;1.60;0.85;;;6.10;99.90;;;;;;5011924;28;20060;-75
2020/12/24 08:01:41;;;;;;;2.33;0.82;;;6.00;99.90;;;;;;5010388;28;20117;-75
2020/12/24 08:04:07;;;;;;;0.70;0.70;;;6.10;99.90;;;;;;5010834;28;20533;-75
2020/12/24 08:06:33;;;;;;;1.23;0.60;;;6.10;99.90;;;;;;5011528;28;20496;-75
2020/12/24 08:09:16;;;;;;;1.80;0.70;;;6.20;99.90;;;;;;5010566;28;20168;-75
2020/12/24 08:11:51;;;;;;;1.23;0.80;;;6.30;99.90;;;;;;5011609;28;20029;-75
2020/12/24 08:14:24;;;;;;;2.60;1.77;;;6.30;99.90;;;;;;5011636;28;20022;-75
2020/12/24 08:16:51;;;;;;;0.40;0.40;;;6.30;99.90;;;;;;5010332;28;20076;-75
2020/12/24 08:19:33;;;;;;;4.18;0.65;;;6.20;99.90;;;;;;5012027;28;20165;-75
2020/12/24 08:22:31;;;;;;;1.10;0.55;;;6.20;99.90;;;;;;5010150;28;20083;-75
2020/12/24 08:25:00;;;;;;;1.38;0.70;;;6.20;99.90;;;;;;4996952;28;20076;-75
2020/12/24 08:27:27;;;;;;;3.40;0.77;;;6.30;99.90;;;;;;4991809;28;20026;-75
2020/12/24 08:29:53;;;;;;;0.90;0.60;;;6.20;99.90;;;;;;4991975;28;20019;-76
2020/12/24 08:32:19;;;;;;;2.08;1.15;;;6.20;99.90;;;;;;4990664;28;20033;-77
2020/12/24 08:34:45;;;;;;;2.28;1.50;;;6.10;99.90;;;;;;4991046;28;20177;-76
2020/12/24 08:37:11;;;;;;;3.90;1.60;;;6.20;99.90;;;;;;4990675;28;20109;-76
2020/12/24 08:39:37;;;;;;;2.65;1.40;;;6.30;99.90;;;;;;4990538;28;20041;-75
2020/12/24 08:42:05;;;;;;;4.38;1.30;;;6.10;99.90;;;;;;4990844;28;20502;-76
2020/12/24 08:44:31;;;;;;;1.40;0.90;;;6.20;99.90;;;;;;4991722;28;20478;-76
2020/12/24 08:47:15;;;;;;;3.13;0.90;;;6.30;99.90;;;;;;4991807;28;20106;-76
2020/12/24 08:49:43;;;;;;;3.10;1.02;;;6.10;99.90;;;;;;4990223;28;20026;-76
2020/12/24 08:52:20;;;;;;;1.30;0.93;;;6.10;99.90;;;;;;4991818;28;20030;-76
2020/12/24 08:55:04;;;;;;;2.25;1.23;;;6.00;99.90;;;;;;4991643;28;20050;-75
2020/12/24 08:57:30;;;;;;;3.10;1.45;;;6.00;99.90;;;;;;4991679;28;20026;-75
2020/12/24 08:59:57;;;;;;;5.70;1.73;;;6.00;99.90;;;;;;5006546;28;20050;-75
2020/12/24 09:02:28;;;;;;;2.20;1.20;;;6.00;99.90;;;;;;4992087;28;20030;-74
2020/12/24 09:04:56;;;;;;;4.75;1.10;;;6.00;99.90;;;;;;4991664;28;20375;-75
2020/12/24 09:07:34;;;;;;;1.52;1.17;;;5.90;99.90;;;;;;4991523;28;20062;-74
2020/12/24 09:10:10;;;;;;;1.67;1.05;;;5.90;99.90;;;;;;4991268;28;20026;-75
2020/12/24 09:12:38;;;;;;;1.88;1.02;;;6.00;99.90;;;;;;4991163;28;20105;-74
2020/12/24 09:15:06;;;;;;;1.30;0.82;;;6.00;99.90;;;;;;4990903;28;20422;-75
2020/12/24 09:17:32;;;;;;;1.52;1.20;;;6.00;99.90;;;;;;4991630;28;20427;-75
2020/12/24 09:20:08;;;;;;;2.38;0.85;;;6.00;99.90;;;;;;4991290;28;20061;-75
2020/12/24 09:22:35;;;;;;;1.95;0.90;;;6.10;99.90;;;;;;4991795;28;20034;-75
2020/12/24 09:25:02;;;;;;;5.88;1.25;;;6.30;99.90;;;;;;4990382;28;20066;-75
2020/12/24 09:27:28;;;;;;;1.23;1.13;;;6.40;99.90;;;;;;4991844;28;20030;-75
2020/12/24 09:29:53;;;;;;;1.88;0.82;;;6.50;99.90;;;;;;4991652;28;20672;-75
2020/12/24 09:32:19;;;;;;;2.95;1.23;;;6.60;99.90;;;;;;4991975;28;20065;-75
2020/12/24 09:34:45;;;;;;;4.68;1.75;;;6.50;99.90;;;;;;4990660;28;20023;-75
2020/12/24 09:37:12;;;;;;;3.33;1.90;;;6.40;99.90;;;;;;4989623;28;20506;-74
2020/12/24 09:39:37;;;;;;;4.28;1.85;;;6.30;99.90;;;;;;4990639;28;20022;-75
2020/12/24 09:42:04;;;;;;;3.95;1.73;;;6.40;99.90;;;;;;4989585;28;20558;-74
2020/12/24 09:44:30;;;;;;;3.28;1.50;;;6.40;99.90;;;;;;4991077;28;20439;-77
2020/12/24 09:46:56;;;;;;;1.35;0.88;;;6.40;99.90;;;;;;4990867;28;20027;-75
2020/12/24 09:49:21;;;;;;;2.55;1.25;;;6.30;99.90;;;;;;4990588;28;20141;-75
2020/12/24 09:51:47;;;;;;;2.05;1.35;;;6.30;99.90;;;;;;4989600;28;20019;-75
2020/12/24 09:54:13;;;;;;;3.63;1.50;;;6.30;99.90;;;;;;4990963;28;20025;-75
2020/12/24 09:56:39;;;;;;;6.30;1.10;;;6.30;99.90;;;;;;4989643;28;20068;-74
2020/12/24 09:59:05;;;;;;;2.80;1.23;;;6.20;99.90;;;;;;4991284;28;20034;-75
2020/12/24 10:01:30;;;;;;;1.85;0.98;;;6.30;99.90;;;;;;4990776;28;20033;-73
2020/12/24 10:03:56;;;;;;;2.50;1.63;;;6.30;99.90;;;;;;4991342;28;20022;-75
2020/12/24 10:06:24;;;;;;;3.10;1.17;;;6.30;99.90;;;;;;4994275;28;20371;-74
2020/12/24 10:08:50;;;;;;;4.18;1.45;;;6.30;99.90;;;;;;4993089;28;20030;-75
2020/12/24 10:11:16;;;;;;;1.13;0.85;;;6.40;99.90;;;;;;4994098;28;20045;-75
2020/12/24 10:13:42;;;;;;;1.27;0.80;;;6.40;99.90;;;;;;4994479;28;20391;-74
2020/12/24 10:16:08;;;;;;;2.38;0.90;;;6.40;99.90;;;;;;4992916;28;20543;-74
2020/12/24 10:18:34;;;;;;;0.95;0.80;;;6.40;99.90;;;;;;4976691;28;20145;-76
2020/12/24 10:21:00;;;;;;;2.40;0.90;;;6.50;99.90;;;;;;4999290;28;20371;-75
2020/12/24 10:23:25;;;;;;;1.20;0.93;;;6.60;99.90;;;;;;5011902;28;20564;-75
2020/12/24 10:25:51;;;;;;;2.70;1.33;;;6.60;99.90;;;;;;5012229;28;20548;-75
2020/12/24 10:28:17;;;;;;;3.13;1.00;;;6.70;99.90;;;;;;5013386;28;20022;-75
2020/12/24 10:30:44;;;;;;;2.35;1.10;;;6.70;99.90;;;;;;4997319;28;20026;-75
2020/12/24 10:33:10;;;;;;;2.40;0.82;;;6.80;99.90;;;;;;4994213;28;20029;-75
2020/12/24 10:35:36;;;;;;;2.95;1.10;;;6.90;99.90;;;;;;4993929;28;20023;-75
2020/12/24 10:38:05;;;;;;;3.13;1.05;;;7.00;99.90;;;;;;4992259;28;20399;-75
2020/12/24 10:40:31;;;;;;;2.88;1.10;;;7.00;99.90;;;;;;5008921;28;20077;-75
2020/12/24 10:42:58;;;;;;;3.00;1.35;;;7.10;99.90;;;;;;4993514;28;20030;-74
2020/12/24 10:45:25;;;;;;;4.25;1.35;;;7.10;99.90;;;;;;4993798;28;20027;-76
2020/12/24 10:47:51;;;;;;;1.05;0.63;;;7.30;99.90;;;;;;4976263;28;20034;-75
2020/12/24 10:50:18;;;;;;;2.95;0.98;;;7.30;99.50;;;;;;4993595;28;20027;-75
2020/12/24 10:52:43;;;;;;;1.52;0.70;;;7.40;98.80;;;;;;4993727;28;20022;-75
2020/12/24 10:55:09;;;;;;;0.68;0.50;;;7.50;98.50;;;;;;5000264;28;20351;-75
2020/12/24 10:57:35;;;;;;;1.30;0.63;;;7.50;96.60;;;;;;5013318;28;20026;-75
2020/12/24 11:00:03;;;;;;;1.48;0.68;;;7.60;95.40;;;;;;5012987;28;20108;-75
2020/12/24 11:02:29;;;;;;;0.70;0.68;;;7.60;95.50;;;;;;5013289;28;20021;-74
2020/12/24 11:04:54;;;;;;;1.42;0.70;;;7.60;95.50;;;;;;5013014;28;20528;-75
2020/12/24 11:07:20;;;;;;;0.40;0.40;;;7.60;94.70;;;;;;5013473;28;20026;-75
2020/12/24 11:09:46;;;;;;;1.92;0.77;;;7.80;94.40;;;;;;5013180;28;20022;-75
2020/12/24 11:12:11;;;;;;;2.53;0.73;;;7.90;92.50;;;;;;5013452;28;20022;-75
2020/12/24 11:14:37;;;;;;;0.63;0.55;;;7.90;92.60;;;;;;5012596;28;20084;-74
2020/12/24 11:17:04;;;;;;;0.93;0.52;;;7.90;93.00;;;;;;5012601;28;20022;-75
2020/12/24 11:19:30;;;;;;;2.13;1.13;;;8.00;92.20;;;;;;5009532;28;20052;-75
2020/12/24 11:21:55;;;;;;;1.15;0.80;;;8.00;91.90;;;;;;4993134;28;20496;-75
2020/12/24 11:24:21;;;;;;;1.00;0.82;;;8.00;92.60;;;;;;4975255;28;20057;-75
2020/12/24 11:26:47;;;;;;;2.20;0.70;;;8.10;92.00;;;;;;4991677;28;20149;-75
2020/12/24 11:29:12;;;;;;;1.35;0.70;;;8.10;91.80;;;;;;5007736;28;20109;-75
2020/12/24 11:31:38;;;;;;;2.92;0.85;;;8.20;92.20;;;;;;4992814;28;20527;-75
2020/12/24 11:34:05;;;;;;;4.03;0.68;;;8.20;91.20;;;;;;4992549;28;20045;-74
2020/12/24 11:36:32;;;;;;;2.38;0.60;;;8.30;90.80;;;;;;4991409;28;20129;-75
2020/12/24 11:38:59;;;;;;;2.38;0.63;;;8.50;90.70;;;;;;4991411;28;20053;-75
2020/12/24 11:41:27;;;;;;;2.28;0.68;;;8.60;89.80;;;;;;4991303;28;20037;-75
2020/12/24 11:43:54;;;;;;;2.47;0.85;;;9.00;88.30;;;;;;4992665;28;20030;-75
2020/12/24 11:46:22;;;;;;;2.25;1.08;;;9.00;86.90;;;;;;4991303;28;20109;-75
2020/12/24 11:48:49;;;;;;;4.43;0.88;;;8.90;85.10;;;;;;4992798;28;20110;-75
2020/12/24 11:51:18;;;;;;;1.98;0.95;;;8.80;86.00;;;;;;4992244;28;20105;-75
2020/12/24 11:53:45;;;;;;;3.83;0.80;;;8.70;86.30;;;;;;4991215;28;20023;-75
2020/12/24 11:56:16;;;;;;;1.92;0.80;;;8.70;85.80;;;;;;4990837;28;20026;-75
2020/12/24 11:58:42;;;;;;;4.00;0.82;;;8.70;84.90;;;;;;4975088;28;20049;-75
2020/12/24 12:01:08;;;;;;;5.00;1.10;;;8.60;84.90;;;;;;4990662;28;20042;-74
2020/12/24 12:03:34;;;;;;;8.38;1.10;;;8.50;84.80;;;;;;4992232;28;20026;-75
2020/12/24 12:06:00;;;;;;;7.63;0.95;;;8.50;84.10;;;;;;4991077;28;20030;-75
2020/12/24 12:08:28;;;;;;;3.05;0.80;;;8.50;84.20;;;;;;4992021;28;20073;-75
2020/12/24 12:10:54;;;;;;;3.25;0.63;;;8.40;85.20;;;;;;4992368;28;20072;-75
2020/12/24 12:13:20;;;;;;;7.15;0.63;;;8.30;82.70;;;;;;4992459;28;20022;-75
2020/12/24 12:15:45;;;;;;;2.65;0.70;;;8.30;82.90;;;;;;4991951;28;20030;-75
2020/12/24 12:18:11;;;;;;;3.17;1.00;;;8.30;83.90;;;;;;4991825;28;20022;-75
2020/12/24 12:20:41;;;;;;;8.10;1.05;;;8.20;82.50;;;;;;4990848;28;20034;-75
2020/12/24 12:23:06;;;;;;;3.00;0.85;;;8.20;82.70;;;;;;4991966;28;20023;-75
2020/12/24 12:25:32;;;;;;;2.45;0.88;;;8.20;82.60;;;;;;4991820;28;20038;-75
2020/12/24 12:27:58;;;;;;;2.28;0.80;;;8.20;82.60;;;;;;4990838;28;20030;-75
2020/12/24 12:30:24;;;;;;;4.90;1.00;;;8.20;82.50;;;;;;4992436;28;20378;-75
2020/12/24 12:32:49;;;;;;;2.15;1.00;;;8.20;81.30;;;;;;4991800;28;20065;-74
2020/12/24 12:35:15;;;;;;;2.03;1.00;;;8.20;81.10;;;;;;4990533;28;20264;-75
2020/12/24 12:37:41;;;;;;;5.80;1.23;;;8.20;81.10;;;;;;4990475;28;20022;-75
2020/12/24 12:40:07;;;;;;;3.63;1.15;;;8.40;81.10;;;;;;4990554;28;20022;-75
2020/12/24 12:42:33;;;;;;;0.98;0.65;;;8.30;81.30;;;;;;4990569;28;20022;-75
2020/12/24 12:44:59;;;;;;;3.75;0.85;;;8.40;81.50;;;;;;4991389;28;20022;-75
2020/12/24 12:47:25;;;;;;;5.93;0.90;;;8.40;81.40;;;;;;4991746;28;20054;-75
2020/12/24 12:49:52;;;;;;;4.55;0.90;;;8.40;81.10;;;;;;4991423;28;20037;-75
2020/12/24 12:52:18;;;;;;;7.82;0.93;;;8.40;81.30;;;;;;4991747;28;20022;-75
2020/12/24 12:54:44;;;;;;;5.97;1.27;;;8.40;81.10;;;;;;4991696;28;20484;-75
2020/12/24 12:57:11;;;;;;;2.83;0.75;;;8.40;81.00;;;;;;4992297;28;20109;-74